createdAt,value
2023-02-14T00:03:01.492Z,97492.78
2023-02-14T00:08:03.909Z,97498.38
2023-02-14T00:13:06.307Z,97498.88
2023-02-14T00:18:08.736Z,97499.22
2023-02-14T00:23:11.124Z,97501.81
2023-02-14T00:28:13.555Z,97507.47
2023-02-14T00:33:15.919Z,97502.16
2023-02-14T00:38:18.238Z,97500.16
2023-02-14T00:43:20.539Z,97498.81
2023-02-14T00:48:22.906Z,97499.94
2023-02-14T00:53:25.421Z,97499.47
2023-02-14T00:58:28.073Z,97511.66
2023-02-14T01:03:30.579Z,97519.22
2023-02-14T01:08:33.010Z,97516.19
2023-02-14T01:13:35.357Z,97521.25
2023-02-14T01:18:37.736Z,97513.91
2023-02-14T01:23:40.234Z,97506.75
2023-02-14T01:28:42.730Z,97514.19
2023-02-14T01:33:45.152Z,97515.00
2023-02-14T01:38:47.482Z,97521.94
2023-02-14T01:43:49.791Z,97520.88
2023-02-14T01:48:52.424Z,97516.97
2023-02-14T01:53:54.858Z,97523.72
2023-02-14T01:58:57.294Z,97520.88
2023-02-14T02:03:59.692Z,97515.47
2023-02-14T02:09:02.202Z,97523.19
2023-02-14T02:14:04.655Z,97519.19
2023-02-14T02:19:07.016Z,97530.78
2023-02-14T02:24:09.554Z,97515.28
2023-02-14T02:29:11.916Z,97517.88
2023-02-14T02:34:14.600Z,97512.69
2023-02-14T02:39:16.865Z,97511.13
2023-02-14T02:44:19.136Z,97504.94
2023-02-14T02:49:41.563Z,97492.25
2023-02-14T02:54:43.897Z,97485.50
2023-02-14T02:59:46.210Z,97478.03
2023-02-14T03:04:54.751Z,97497.22
2023-02-14T03:09:58.122Z,97486.88
2023-02-14T03:15:00.463Z,97476.19
2023-02-14T03:20:15.061Z,97487.81
2023-02-14T03:25:17.582Z,97500.72
2023-02-14T03:30:20.006Z,97486.72
2023-02-14T03:35:22.554Z,97486.22
2023-02-14T03:40:24.895Z,97479.19
2023-02-14T03:45:27.792Z,97501.75
2023-02-14T03:50:30.162Z,97495.63
2023-02-14T03:55:32.558Z,97514.31
2023-02-14T04:00:34.934Z,97506.13
2023-02-14T04:05:38.494Z,97508.28
2023-02-14T04:10:43.167Z,97498.06
2023-02-14T04:15:45.461Z,97499.91
2023-02-14T04:20:47.766Z,97501.56
2023-02-14T04:25:50.160Z,97497.13
2023-02-14T04:30:52.504Z,97501.53
2023-02-14T04:35:54.808Z,97485.88
2023-02-14T04:40:57.361Z,97493.81
2023-02-14T04:46:00.011Z,97490.63
2023-02-14T04:51:02.631Z,97477.53
2023-02-14T04:56:04.938Z,97474.53
2023-02-14T05:01:07.421Z,97461.06
2023-02-14T05:06:09.967Z,97475.41
2023-02-14T05:11:12.247Z,97459.59
2023-02-14T05:16:14.595Z,97455.50
2023-02-14T05:21:17.171Z,97444.47
2023-02-14T05:26:19.652Z,97449.50
2023-02-14T05:31:22.588Z,97448.19
2023-02-14T05:36:24.975Z,97439.09
2023-02-14T05:41:27.246Z,97445.03
2023-02-14T05:46:29.613Z,97454.47
2023-02-14T05:51:31.895Z,97461.03
2023-02-14T05:56:34.186Z,97473.75
2023-02-14T06:01:36.572Z,97458.59
2023-02-14T06:06:38.982Z,97466.69
2023-02-14T06:11:41.334Z,97468.69
2023-02-14T06:16:43.729Z,97480.31
2023-02-14T06:21:46.273Z,97477.59
2023-02-14T06:26:48.610Z,97470.44
2023-02-14T06:31:51.043Z,97476.09
2023-02-14T06:36:53.495Z,97484.97
2023-02-14T06:41:55.824Z,97483.53
2023-02-14T06:46:58.133Z,97482.06
2023-02-14T06:52:00.654Z,97479.94
2023-02-14T06:57:03.156Z,97474.50
2023-02-14T07:02:05.487Z,97478.97
2023-02-14T07:07:07.791Z,97476.53
2023-02-14T07:12:10.216Z,97479.41
2023-02-14T07:17:12.537Z,97474.78
2023-02-14T07:22:14.848Z,97473.06
2023-02-14T07:27:17.175Z,97474.91
2023-02-14T07:32:20.047Z,97470.97
2023-02-14T07:37:22.785Z,97458.25
2023-02-14T07:42:25.080Z,97454.28
2023-02-14T07:47:27.671Z,97436.78
2023-02-14T07:52:29.932Z,97434.94
2023-02-14T07:57:32.537Z,97438.88
2023-02-14T08:02:35.703Z,97439.03
2023-02-14T08:07:38.082Z,97426.13
2023-02-14T08:12:58.198Z,97417.81
2023-02-14T08:18:00.612Z,97414.56
2023-02-14T08:23:02.986Z,97404.38
2023-02-14T08:28:05.369Z,97416.41
2023-02-14T08:33:07.778Z,97415.84
2023-02-14T08:38:10.409Z,97413.31
2023-02-14T08:43:12.885Z,97405.78
2023-02-14T08:48:15.360Z,97421.47
2023-02-14T08:53:17.651Z,97421.31
2023-02-14T08:58:20.184Z,97430.25
2023-02-14T09:03:22.542Z,97437.44
2023-02-14T09:08:25.194Z,97435.06
2023-02-14T09:13:27.601Z,97440.34
2023-02-14T09:18:30.039Z,97441.66
2023-02-14T09:23:32.348Z,97445.47
2023-02-14T09:28:34.822Z,97435.44
2023-02-14T09:33:37.135Z,97429.28
2023-02-14T09:38:39.471Z,97430.25
2023-02-14T09:43:42.045Z,97424.63
2023-02-14T09:48:44.638Z,97422.13
2023-02-14T09:53:46.996Z,97423.41
2023-02-14T09:58:49.407Z,97417.75
2023-02-14T10:03:51.703Z,97419.88
2023-02-14T10:08:55.282Z,97425.25
2023-02-14T10:13:57.649Z,97417.63
2023-02-14T10:19:00.033Z,97403.16
2023-02-14T10:24:02.470Z,97407.81
2023-02-14T10:29:04.951Z,97409.03
2023-02-14T10:34:07.263Z,97401.38
2023-02-14T10:39:09.785Z,97413.34
2023-02-14T10:44:13.516Z,97396.56
2023-02-14T10:49:16.057Z,97397.81
2023-02-14T10:54:18.630Z,97391.13
2023-02-14T10:59:21.862Z,97389.59
2023-02-14T11:04:24.353Z,97377.38
2023-02-14T11:09:26.753Z,97376.28
2023-02-14T11:14:30.141Z,97375.19
2023-02-14T11:19:34.112Z,97367.09
2023-02-14T11:24:37.590Z,97356.69
2023-02-14T11:29:40.009Z,97343.44
2023-02-14T11:34:42.343Z,97341.19
2023-02-14T11:39:44.728Z,97326.50
2023-02-14T11:44:47.034Z,97326.28
2023-02-14T11:49:49.471Z,97324.28
2023-02-14T11:54:51.854Z,97316.31
2023-02-14T11:59:54.302Z,97311.56
2023-02-14T12:04:56.785Z,97304.09
2023-02-14T12:10:00.241Z,97301.81
2023-02-14T12:15:02.680Z,97286.63
2023-02-14T12:20:05.275Z,97289.94
2023-02-14T12:25:08.479Z,97281.06
2023-02-14T12:30:12.559Z,97276.94
2023-02-14T12:35:14.862Z,97275.94
2023-02-14T12:40:17.321Z,97267.28
2023-02-14T12:45:19.803Z,97273.16
2023-02-14T12:50:22.107Z,97261.63
2023-02-14T12:55:24.410Z,97255.03
2023-02-14T13:00:26.726Z,97257.34
2023-02-14T13:05:29.321Z,97254.41
2023-02-14T13:10:31.664Z,97250.84
2023-02-14T13:15:34.036Z,97232.59
2023-02-14T13:20:36.369Z,97225.34
2023-02-14T13:25:40.452Z,97225.22
2023-02-14T13:30:43.135Z,97217.78
2023-02-14T13:35:45.633Z,97210.44
2023-02-14T13:40:47.980Z,97217.03
2023-02-14T13:45:50.271Z,97215.34
2023-02-14T13:50:52.868Z,97211.19
2023-02-14T13:55:55.967Z,97219.56
2023-02-14T14:00:58.410Z,97207.78
2023-02-14T14:06:01.229Z,97207.03
2023-02-14T14:11:03.822Z,97214.69
2023-02-14T14:16:06.176Z,97198.59
2023-02-14T14:21:08.614Z,97192.63
2023-02-14T14:26:11.236Z,97202.94
2023-02-14T14:31:13.937Z,97200.59
2023-02-14T14:36:16.410Z,97197.66
2023-02-14T14:41:19.169Z,97192.19
2023-02-14T14:46:21.703Z,97195.56
2023-02-14T14:51:24.131Z,97190.72
2023-02-14T14:56:26.551Z,97184.13
2023-02-14T15:01:29.087Z,97184.03
2023-02-14T15:06:31.596Z,97177.66
2023-02-14T15:11:51.535Z,97186.81
2023-02-14T15:16:53.946Z,97185.69
2023-02-14T15:21:56.498Z,97179.22
2023-02-14T15:26:58.955Z,97181.59
2023-02-14T15:32:03.146Z,97184.50
2023-02-14T15:37:06.877Z,97195.28
2023-02-14T15:42:09.745Z,97192.91
2023-02-14T15:47:12.191Z,97196.16
2023-02-14T15:52:14.801Z,97199.63
2023-02-14T15:57:17.377Z,97194.94
2023-02-14T16:02:19.781Z,97197.31
2023-02-14T16:07:22.462Z,97201.41
2023-02-14T16:12:25.030Z,97206.88
2023-02-14T16:17:29.400Z,97209.47
2023-02-14T16:22:32.221Z,97211.66
2023-02-14T16:27:34.700Z,97205.09
2023-02-14T16:32:38.554Z,97214.19
2023-02-14T16:37:41.023Z,97210.25
2023-02-14T16:42:43.496Z,97214.84
2023-02-14T16:47:47.017Z,97220.72
2023-02-14T16:52:49.370Z,97220.41
2023-02-14T16:57:51.827Z,97217.97
2023-02-14T17:03:04.630Z,97222.47
2023-02-14T17:08:07.083Z,97226.66
2023-02-14T17:13:09.437Z,97228.84
2023-02-14T17:18:11.730Z,97224.09
2023-02-14T17:23:14.107Z,97228.97
2023-02-14T17:28:16.407Z,97234.59
2023-02-14T17:33:19.847Z,97233.16
2023-02-14T17:38:22.355Z,97231.50
2023-02-14T17:43:25.154Z,97233.47
2023-02-14T17:48:27.721Z,97236.75
2023-02-14T17:53:30.315Z,97240.38
2023-02-14T17:58:32.905Z,97239.41
2023-02-14T18:03:35.384Z,97234.13
2023-02-14T18:08:37.886Z,97228.47
2023-02-14T18:13:40.299Z,97229.91
2023-02-14T18:18:42.589Z,97227.09
2023-02-14T18:23:45.246Z,97221.97
2023-02-14T18:28:47.866Z,97222.81
2023-02-14T18:33:50.300Z,97219.66
2023-02-14T18:38:52.669Z,97214.03
2023-02-14T18:43:54.972Z,97215.03
2023-02-14T18:48:57.414Z,97209.91
2023-02-14T18:53:59.711Z,97215.00
2023-02-14T18:59:02.118Z,97211.09
2023-02-14T19:04:06.026Z,97206.44
2023-02-14T19:09:08.561Z,97200.84
2023-02-14T19:14:11.099Z,97193.75
2023-02-14T19:19:13.536Z,97190.59
2023-02-14T19:24:16.507Z,97189.13
2023-02-14T19:29:19.205Z,97202.56
2023-02-14T19:34:21.859Z,97197.97
2023-02-14T19:39:24.596Z,97183.09
2023-02-14T19:44:28.721Z,97180.44
2023-02-14T19:49:32.136Z,97179.75
2023-02-14T19:54:34.593Z,97172.38
2023-02-14T19:59:37.389Z,97174.16
2023-02-14T20:04:39.897Z,97168.25
2023-02-14T20:09:43.078Z,97164.63
2023-02-14T20:14:51.435Z,97167.09
2023-02-14T20:19:55.122Z,97169.22
2023-02-14T20:24:58.051Z,97162.13
2023-02-14T20:30:01.439Z,97162.59
2023-02-14T20:35:05.053Z,97163.25
2023-02-14T20:40:09.933Z,97152.03
2023-02-14T20:45:12.826Z,97148.91
2023-02-14T20:50:15.704Z,97147.47
2023-02-14T20:55:18.446Z,97144.84
2023-02-14T21:00:20.937Z,97139.75
2023-02-14T21:05:23.337Z,97127.53
2023-02-14T21:10:25.855Z,97123.59
2023-02-14T21:15:28.794Z,97127.84
2023-02-14T21:20:31.230Z,97123.41
2023-02-14T21:25:33.775Z,97127.38
2023-02-14T21:30:36.367Z,97119.09
2023-02-14T21:35:38.765Z,97124.72
2023-02-14T21:40:41.179Z,97120.78
2023-02-14T21:45:57.066Z,97117.16
2023-02-14T21:50:59.973Z,97108.25
2023-02-14T21:56:02.653Z,97111.50
2023-02-14T22:01:05.153Z,97104.78
2023-02-14T22:06:10.127Z,97097.38
2023-02-14T22:11:12.458Z,97094.53
2023-02-14T22:16:15.071Z,97087.47
2023-02-14T22:21:17.547Z,97077.25
2023-02-14T22:26:19.937Z,97082.56
2023-02-14T22:31:22.361Z,97082.88
2023-02-14T22:36:25.040Z,97075.47
2023-02-14T22:41:27.453Z,97080.25
2023-02-14T22:46:29.895Z,97064.44
2023-02-14T22:51:32.479Z,97072.97
2023-02-14T22:56:35.178Z,97070.03
2023-02-14T23:01:37.697Z,97070.88
2023-02-14T23:06:40.064Z,97070.38
2023-02-14T23:11:42.470Z,97073.34
2023-02-14T23:17:02.289Z,97070.84
2023-02-14T23:22:04.698Z,97070.34
2023-02-14T23:27:06.988Z,97061.94
2023-02-14T23:32:09.441Z,97057.19
2023-02-14T23:37:11.853Z,97056.19
2023-02-14T23:42:14.565Z,97050.91
2023-02-14T23:47:17.013Z,97054.53
2023-02-14T23:52:19.330Z,97044.50
2023-02-14T23:57:21.794Z,97040.72
